sensor_id;sensor_type;location;lat;lon;timestamp;P1;durP1;ratioP1;P2;durP2;ratioP2
54831;SDS011;40730;53.068;6.572;2023-03-01T00:01:10;192.80;;;26.38;;
54831;SDS011;40730;53.068;6.572;2023-03-01T00:03:40;36.55;;;18.30;;
54831;SDS011;40730;53.068;6.572;2023-03-01T00:06:07;37.03;;;18.80;;
54831;SDS011;40730;53.068;6.572;2023-03-01T00:08:33;51.42;;;25.15;;
54831;SDS011;40730;53.068;6.572;2023-03-01T00:11:06;46.22;;;22.90;;
54831;SDS011;40730;53.068;6.572;2023-03-01T00:13:54;50.05;;;24.48;;
54831;SDS011;40730;53.068;6.572;2023-03-01T00:16:31;56.22;;;26.77;;
54831;SDS011;40730;53.068;6.572;2023-03-01T00:19:03;70.07;;;29.50;;
54831;SDS011;40730;53.068;6.572;2023-03-01T00:21:30;62.50;;;27.80;;
54831;SDS011;40730;53.068;6.572;2023-03-01T00:23:56;75.75;;;30.52;;
54831;SDS011;40730;53.068;6.572;2023-03-01T00:26:22;70.00;;;31.00;;
54831;SDS011;40730;53.068;6.572;2023-03-01T00:28:50;61.58;;;27.55;;
54831;SDS011;40730;53.068;6.572;2023-03-01T00:31:18;104.10;;;32.75;;
54831;SDS011;40730;53.068;6.572;2023-03-01T00:33:47;85.78;;;34.38;;
54831;SDS011;40730;53.068;6.572;2023-03-01T00:36:14;66.05;;;28.88;;
54831;SDS011;40730;53.068;6.572;2023-03-01T00:38:42;70.50;;;29.70;;
54831;SDS011;40730;53.068;6.572;2023-03-01T00:41:10;67.53;;;29.15;;
54831;SDS011;40730;53.068;6.572;2023-03-01T00:43:38;138.82;;;34.92;;
54831;SDS011;40730;53.068;6.572;2023-03-01T00:46:05;95.68;;;32.33;;
54831;SDS011;40730;53.068;6.572;2023-03-01T00:48:33;88.82;;;32.78;;
54831;SDS011;40730;53.068;6.572;2023-03-01T00:51:06;80.13;;;33.38;;
54831;SDS011;40730;53.068;6.572;2023-03-01T00:53:34;76.25;;;30.60;;
54831;SDS011;40730;53.068;6.572;2023-03-01T00:56:00;99.43;;;34.85;;
54831;SDS011;40730;53.068;6.572;2023-03-01T00:58:26;83.53;;;31.08;;
54831;SDS011;40730;53.068;6.572;2023-03-01T01:00:52;229.18;;;43.28;;
54831;SDS011;40730;53.068;6.572;2023-03-01T01:03:18;138.05;;;37.47;;
54831;SDS011;40730;53.068;6.572;2023-03-01T01:05:44;138.88;;;38.47;;
54831;SDS011;40730;53.068;6.572;2023-03-01T01:08:09;132.43;;;38.20;;
54831;SDS011;40730;53.068;6.572;2023-03-01T01:10:35;167.07;;;39.95;;
54831;SDS011;40730;53.068;6.572;2023-03-01T01:13:01;154.35;;;38.53;;
54831;SDS011;40730;53.068;6.572;2023-03-01T01:15:27;173.48;;;37.35;;
54831;SDS011;40730;53.068;6.572;2023-03-01T01:17:53;146.52;;;40.15;;
54831;SDS011;40730;53.068;6.572;2023-03-01T01:20:19;177.65;;;41.88;;
54831;SDS011;40730;53.068;6.572;2023-03-01T01:22:45;201.95;;;42.35;;
54831;SDS011;40730;53.068;6.572;2023-03-01T01:25:11;283.73;;;45.85;;
54831;SDS011;40730;53.068;6.572;2023-03-01T01:27:36;335.45;;;47.40;;
54831;SDS011;40730;53.068;6.572;2023-03-01T01:30:02;339.15;;;43.63;;
54831;SDS011;40730;53.068;6.572;2023-03-01T01:32:29;143.35;;;34.03;;
54831;SDS011;40730;53.068;6.572;2023-03-01T01:34:54;265.92;;;39.00;;
54831;SDS011;40730;53.068;6.572;2023-03-01T01:37:20;123.47;;;28.38;;
54831;SDS011;40730;53.068;6.572;2023-03-01T01:39:46;135.02;;;30.63;;
54831;SDS011;40730;53.068;6.572;2023-03-01T01:42:15;130.20;;;30.90;;
54831;SDS011;40730;53.068;6.572;2023-03-01T01:44:42;130.63;;;30.33;;
54831;SDS011;40730;53.068;6.572;2023-03-01T01:47:18;132.93;;;31.30;;
54831;SDS011;40730;53.068;6.572;2023-03-01T01:49:48;154.10;;;32.35;;
54831;SDS011;40730;53.068;6.572;2023-03-01T01:52:17;100.03;;;28.77;;
54831;SDS011;40730;53.068;6.572;2023-03-01T01:54:49;65.95;;;27.33;;
54831;SDS011;40730;53.068;6.572;2023-03-01T01:57:30;139.00;;;34.72;;
54831;SDS011;40730;53.068;6.572;2023-03-01T02:00:00;118.57;;;31.33;;
54831;SDS011;40730;53.068;6.572;2023-03-01T02:02:31;97.82;;;30.63;;
54831;SDS011;40730;53.068;6.572;2023-03-01T02:05:18;131.48;;;30.23;;
54831;SDS011;40730;53.068;6.572;2023-03-01T02:07:58;219.50;;;35.95;;
54831;SDS011;40730;53.068;6.572;2023-03-01T02:10:24;65.50;;;24.17;;
54831;SDS011;40730;53.068;6.572;2023-03-01T02:12:50;109.90;;;30.23;;
54831;SDS011;40730;53.068;6.572;2023-03-01T02:15:17;88.80;;;27.80;;
54831;SDS011;40730;53.068;6.572;2023-03-01T02:17:42;92.60;;;29.77;;
54831;SDS011;40730;53.068;6.572;2023-03-01T02:20:16;73.40;;;25.58;;
54831;SDS011;40730;53.068;6.572;2023-03-01T02:22:51;86.05;;;30.73;;
54831;SDS011;40730;53.068;6.572;2023-03-01T02:28:03;122.03;;;31.67;;
54831;SDS011;40730;53.068;6.572;2023-03-01T02:30:43;103.20;;;28.02;;
54831;SDS011;40730;53.068;6.572;2023-03-01T02:33:30;89.05;;;29.25;;
54831;SDS011;40730;53.068;6.572;2023-03-01T02:35:58;105.30;;;27.17;;
54831;SDS011;40730;53.068;6.572;2023-03-01T02:38:26;126.70;;;28.02;;
54831;SDS011;40730;53.068;6.572;2023-03-01T02:40:53;61.05;;;23.23;;
54831;SDS011;40730;53.068;6.572;2023-03-01T02:43:22;90.78;;;26.02;;
54831;SDS011;40730;53.068;6.572;2023-03-01T02:45:52;276.90;;;37.95;;
54831;SDS011;40730;53.068;6.572;2023-03-01T02:48:22;179.70;;;34.20;;
54831;SDS011;40730;53.068;6.572;2023-03-01T02:53:32;98.28;;;27.85;;
54831;SDS011;40730;53.068;6.572;2023-03-01T02:56:06;172.82;;;32.88;;
54831;SDS011;40730;53.068;6.572;2023-03-01T02:58:37;221.15;;;35.30;;
54831;SDS011;40730;53.068;6.572;2023-03-01T03:01:10;91.53;;;27.27;;
54831;SDS011;40730;53.068;6.572;2023-03-01T03:03:39;55.05;;;26.08;;
54831;SDS011;40730;53.068;6.572;2023-03-01T03:06:06;65.97;;;26.13;;
54831;SDS011;40730;53.068;6.572;2023-03-01T03:08:32;54.83;;;25.45;;
54831;SDS011;40730;53.068;6.572;2023-03-01T03:10:57;113.32;;;29.13;;
54831;SDS011;40730;53.068;6.572;2023-03-01T03:13:23;243.70;;;35.70;;
54831;SDS011;40730;53.068;6.572;2023-03-01T03:15:53;147.13;;;29.05;;
54831;SDS011;40730;53.068;6.572;2023-03-01T03:18:20;49.88;;;24.05;;
54831;SDS011;40730;53.068;6.572;2023-03-01T03:20:46;41.53;;;20.75;;
54831;SDS011;40730;53.068;6.572;2023-03-01T03:23:13;78.88;;;26.70;;
54831;SDS011;40730;53.068;6.572;2023-03-01T03:25:39;199.70;;;36.13;;
54831;SDS011;40730;53.068;6.572;2023-03-01T03:28:05;68.15;;;21.55;;
54831;SDS011;40730;53.068;6.572;2023-03-01T03:30:35;62.50;;;21.17;;
54831;SDS011;40730;53.068;6.572;2023-03-01T03:33:06;87.93;;;24.17;;
54831;SDS011;40730;53.068;6.572;2023-03-01T03:35:43;55.80;;;19.85;;
54831;SDS011;40730;53.068;6.572;2023-03-01T03:38:11;50.78;;;21.98;;
54831;SDS011;40730;53.068;6.572;2023-03-01T03:40:43;35.67;;;19.10;;
54831;SDS011;40730;53.068;6.572;2023-03-01T03:43:15;35.10;;;20.15;;
54831;SDS011;40730;53.068;6.572;2023-03-01T03:45:47;32.65;;;17.92;;
54831;SDS011;40730;53.068;6.572;2023-03-01T03:48:14;31.92;;;18.42;;
54831;SDS011;40730;53.068;6.572;2023-03-01T03:50:40;30.27;;;17.73;;
54831;SDS011;40730;53.068;6.572;2023-03-01T03:53:11;27.38;;;17.08;;
54831;SDS011;40730;53.068;6.572;2023-03-01T03:55:37;32.35;;;19.85;;
54831;SDS011;40730;53.068;6.572;2023-03-01T03:58:04;29.42;;;17.70;;
54831;SDS011;40730;53.068;6.572;2023-03-01T04:00:41;30.03;;;17.70;;
54831;SDS011;40730;53.068;6.572;2023-03-01T04:03:08;31.48;;;19.10;;
54831;SDS011;40730;53.068;6.572;2023-03-01T04:05:35;32.67;;;19.10;;
54831;SDS011;40730;53.068;6.572;2023-03-01T04:08:02;28.45;;;17.05;;
54831;SDS011;40730;53.068;6.572;2023-03-01T04:10:32;26.95;;;16.55;;
54831;SDS011;40730;53.068;6.572;2023-03-01T04:13:06;24.80;;;15.68;;
54831;SDS011;40730;53.068;6.572;2023-03-01T04:15:34;24.83;;;15.55;;
54831;SDS011;40730;53.068;6.572;2023-03-01T04:18:00;25.70;;;15.80;;
54831;SDS011;40730;53.068;6.572;2023-03-01T04:20:27;32.05;;;20.40;;
54831;SDS011;40730;53.068;6.572;2023-03-01T04:22:59;35.10;;;19.42;;
54831;SDS011;40730;53.068;6.572;2023-03-01T04:25:36;35.92;;;19.80;;
54831;SDS011;40730;53.068;6.572;2023-03-01T04:28:04;31.93;;;18.20;;
54831;SDS011;40730;53.068;6.572;2023-03-01T04:30:31;32.05;;;18.55;;
54831;SDS011;40730;53.068;6.572;2023-03-01T04:33:01;25.80;;;15.95;;
54831;SDS011;40730;53.068;6.572;2023-03-01T04:35:30;23.63;;;15.10;;
54831;SDS011;40730;53.068;6.572;2023-03-01T04:37:56;23.73;;;14.77;;
54831;SDS011;40730;53.068;6.572;2023-03-01T04:40:22;21.08;;;13.30;;
54831;SDS011;40730;53.068;6.572;2023-03-01T04:42:47;25.30;;;15.70;;
54831;SDS011;40730;53.068;6.572;2023-03-01T04:45:13;22.85;;;14.40;;
54831;SDS011;40730;53.068;6.572;2023-03-01T04:47:40;20.45;;;14.18;;
54831;SDS011;40730;53.068;6.572;2023-03-01T04:50:07;24.58;;;15.25;;
54831;SDS011;40730;53.068;6.572;2023-03-01T04:52:34;23.17;;;14.83;;
54831;SDS011;40730;53.068;6.572;2023-03-01T04:55:00;21.43;;;13.93;;
54831;SDS011;40730;53.068;6.572;2023-03-01T04:57:26;21.98;;;13.85;;
54831;SDS011;40730;53.068;6.572;2023-03-01T04:59:52;25.08;;;15.18;;
54831;SDS011;40730;53.068;6.572;2023-03-01T05:02:18;24.10;;;15.50;;
54831;SDS011;40730;53.068;6.572;2023-03-01T05:04:43;24.92;;;15.63;;
54831;SDS011;40730;53.068;6.572;2023-03-01T05:07:09;29.15;;;17.48;;
54831;SDS011;40730;53.068;6.572;2023-03-01T05:09:34;31.23;;;17.20;;
54831;SDS011;40730;53.068;6.572;2023-03-01T05:12:00;23.48;;;15.45;;
54831;SDS011;40730;53.068;6.572;2023-03-01T05:14:26;22.83;;;14.43;;
54831;SDS011;40730;53.068;6.572;2023-03-01T05:16:51;21.75;;;14.18;;
54831;SDS011;40730;53.068;6.572;2023-03-01T05:19:17;21.55;;;13.13;;
54831;SDS011;40730;53.068;6.572;2023-03-01T05:21:47;18.47;;;12.30;;
54831;SDS011;40730;53.068;6.572;2023-03-01T05:24:29;25.17;;;15.27;;
54831;SDS011;40730;53.068;6.572;2023-03-01T05:26:56;21.93;;;13.97;;
54831;SDS011;40730;53.068;6.572;2023-03-01T05:29:22;24.73;;;15.10;;
54831;SDS011;40730;53.068;6.572;2023-03-01T05:31:52;20.85;;;13.57;;
54831;SDS011;40730;53.068;6.572;2023-03-01T05:34:32;27.50;;;15.65;;
54831;SDS011;40730;53.068;6.572;2023-03-01T05:37:00;23.42;;;14.07;;
54831;SDS011;40730;53.068;6.572;2023-03-01T05:39:26;24.33;;;14.13;;
54831;SDS011;40730;53.068;6.572;2023-03-01T05:41:53;23.33;;;15.52;;
54831;SDS011;40730;53.068;6.572;2023-03-01T05:44:21;21.67;;;14.57;;
54831;SDS011;40730;53.068;6.572;2023-03-01T05:46:46;25.40;;;15.57;;
54831;SDS011;40730;53.068;6.572;2023-03-01T05:49:14;24.40;;;15.07;;
54831;SDS011;40730;53.068;6.572;2023-03-01T05:51:40;22.30;;;13.67;;
54831;SDS011;40730;53.068;6.572;2023-03-01T05:54:07;19.60;;;13.30;;
54831;SDS011;40730;53.068;6.572;2023-03-01T05:56:34;19.58;;;12.77;;
54831;SDS011;40730;53.068;6.572;2023-03-01T05:59:00;21.33;;;13.13;;
54831;SDS011;40730;53.068;6.572;2023-03-01T06:01:27;21.03;;;13.90;;
54831;SDS011;40730;53.068;6.572;2023-03-01T06:03:52;19.73;;;13.38;;
54831;SDS011;40730;53.068;6.572;2023-03-01T06:06:18;24.00;;;15.02;;
54831;SDS011;40730;53.068;6.572;2023-03-01T06:08:44;27.88;;;16.92;;
54831;SDS011;40730;53.068;6.572;2023-03-01T06:11:09;23.83;;;14.73;;
54831;SDS011;40730;53.068;6.572;2023-03-01T06:13:35;26.58;;;16.17;;
54831;SDS011;40730;53.068;6.572;2023-03-01T06:16:03;26.15;;;16.30;;
54831;SDS011;40730;53.068;6.572;2023-03-01T06:18:30;27.60;;;16.60;;
54831;SDS011;40730;53.068;6.572;2023-03-01T06:20:55;22.95;;;14.95;;
54831;SDS011;40730;53.068;6.572;2023-03-01T06:23:21;24.02;;;14.10;;
54831;SDS011;40730;53.068;6.572;2023-03-01T06:25:48;21.70;;;14.40;;
54831;SDS011;40730;53.068;6.572;2023-03-01T06:28:13;23.67;;;15.68;;
54831;SDS011;40730;53.068;6.572;2023-03-01T06:30:39;29.48;;;16.25;;
54831;SDS011;40730;53.068;6.572;2023-03-01T06:33:04;24.45;;;14.75;;
54831;SDS011;40730;53.068;6.572;2023-03-01T06:35:30;20.33;;;13.80;;
54831;SDS011;40730;53.068;6.572;2023-03-01T06:37:57;19.93;;;13.53;;
54831;SDS011;40730;53.068;6.572;2023-03-01T06:40:24;20.42;;;13.57;;
54831;SDS011;40730;53.068;6.572;2023-03-01T06:42:50;22.02;;;13.20;;
54831;SDS011;40730;53.068;6.572;2023-03-01T06:45:17;21.80;;;13.90;;
54831;SDS011;40730;53.068;6.572;2023-03-01T06:47:43;22.48;;;14.02;;
54831;SDS011;40730;53.068;6.572;2023-03-01T06:50:10;20.17;;;13.48;;
54831;SDS011;40730;53.068;6.572;2023-03-01T06:52:36;22.92;;;15.00;;
54831;SDS011;40730;53.068;6.572;2023-03-01T06:55:02;23.08;;;14.80;;
54831;SDS011;40730;53.068;6.572;2023-03-01T06:57:28;25.87;;;16.47;;
54831;SDS011;40730;53.068;6.572;2023-03-01T06:59:54;24.13;;;16.05;;
54831;SDS011;40730;53.068;6.572;2023-03-01T07:02:20;24.83;;;15.18;;
54831;SDS011;40730;53.068;6.572;2023-03-01T07:04:45;28.92;;;18.70;;
54831;SDS011;40730;53.068;6.572;2023-03-01T07:07:11;25.30;;;16.05;;
54831;SDS011;40730;53.068;6.572;2023-03-01T07:09:37;28.85;;;17.48;;
54831;SDS011;40730;53.068;6.572;2023-03-01T07:12:03;25.38;;;16.75;;
54831;SDS011;40730;53.068;6.572;2023-03-01T07:14:28;27.77;;;17.40;;
54831;SDS011;40730;53.068;6.572;2023-03-01T07:16:54;26.60;;;16.27;;
54831;SDS011;40730;53.068;6.572;2023-03-01T07:19:20;27.50;;;16.58;;
54831;SDS011;40730;53.068;6.572;2023-03-01T07:21:46;30.02;;;18.67;;
54831;SDS011;40730;53.068;6.572;2023-03-01T07:24:12;30.98;;;19.35;;
54831;SDS011;40730;53.068;6.572;2023-03-01T07:26:38;32.22;;;19.80;;
54831;SDS011;40730;53.068;6.572;2023-03-01T07:29:04;33.88;;;19.50;;
54831;SDS011;40730;53.068;6.572;2023-03-01T07:31:31;31.92;;;19.55;;
54831;SDS011;40730;53.068;6.572;2023-03-01T07:33:57;27.30;;;17.67;;
54831;SDS011;40730;53.068;6.572;2023-03-01T07:36:22;28.35;;;16.98;;
54831;SDS011;40730;53.068;6.572;2023-03-01T07:38:48;29.80;;;18.05;;
54831;SDS011;40730;53.068;6.572;2023-03-01T07:41:14;24.77;;;16.98;;
54831;SDS011;40730;53.068;6.572;2023-03-01T07:43:40;22.38;;;15.48;;
54831;SDS011;40730;53.068;6.572;2023-03-01T07:46:06;22.95;;;17.38;;
54831;SDS011;40730;53.068;6.572;2023-03-01T07:48:32;24.92;;;16.48;;
54831;SDS011;40730;53.068;6.572;2023-03-01T07:51:02;26.15;;;17.33;;
54831;SDS011;40730;53.068;6.572;2023-03-01T07:53:29;28.98;;;18.05;;
54831;SDS011;40730;53.068;6.572;2023-03-01T07:56:03;26.48;;;18.83;;
54831;SDS011;40730;53.068;6.572;2023-03-01T07:58:39;26.77;;;18.08;;
54831;SDS011;40730;53.068;6.572;2023-03-01T08:01:07;29.35;;;19.25;;
54831;SDS011;40730;53.068;6.572;2023-03-01T08:03:35;30.00;;;20.50;;
54831;SDS011;40730;53.068;6.572;2023-03-01T08:06:02;28.75;;;20.02;;
54831;SDS011;40730;53.068;6.572;2023-03-01T08:08:30;27.63;;;19.52;;
54831;SDS011;40730;53.068;6.572;2023-03-01T08:10:56;31.05;;;19.23;;
54831;SDS011;40730;53.068;6.572;2023-03-01T08:13:22;27.02;;;18.80;;
54831;SDS011;40730;53.068;6.572;2023-03-01T08:15:51;27.17;;;19.50;;
54831;SDS011;40730;53.068;6.572;2023-03-01T08:18:17;27.83;;;20.15;;
54831;SDS011;40730;53.068;6.572;2023-03-01T08:20:44;31.00;;;20.92;;
54831;SDS011;40730;53.068;6.572;2023-03-01T08:23:10;34.05;;;22.92;;
54831;SDS011;40730;53.068;6.572;2023-03-01T08:25:36;38.97;;;23.23;;
54831;SDS011;40730;53.068;6.572;2023-03-01T08:28:02;36.67;;;23.05;;
54831;SDS011;40730;53.068;6.572;2023-03-01T08:30:28;31.40;;;22.75;;
54831;SDS011;40730;53.068;6.572;2023-03-01T08:32:54;32.03;;;21.35;;
54831;SDS011;40730;53.068;6.572;2023-03-01T08:35:21;37.60;;;24.85;;
54831;SDS011;40730;53.068;6.572;2023-03-01T08:37:47;33.92;;;23.67;;
54831;SDS011;40730;53.068;6.572;2023-03-01T08:40:13;35.03;;;23.40;;
54831;SDS011;40730;53.068;6.572;2023-03-01T08:42:39;33.45;;;22.90;;
54831;SDS011;40730;53.068;6.572;2023-03-01T08:45:06;32.67;;;21.95;;
54831;SDS011;40730;53.068;6.572;2023-03-01T08:47:32;32.63;;;22.00;;
54831;SDS011;40730;53.068;6.572;2023-03-01T08:49:58;29.13;;;20.55;;
54831;SDS011;40730;53.068;6.572;2023-03-01T08:52:25;29.80;;;21.25;;
54831;SDS011;40730;53.068;6.572;2023-03-01T08:54:51;25.83;;;18.92;;
54831;SDS011;40730;53.068;6.572;2023-03-01T08:57:17;25.25;;;18.45;;
54831;SDS011;40730;53.068;6.572;2023-03-01T08:59:43;29.38;;;20.58;;
54831;SDS011;40730;53.068;6.572;2023-03-01T09:02:13;25.10;;;18.52;;
54831;SDS011;40730;53.068;6.572;2023-03-01T09:04:40;26.55;;;18.90;;
54831;SDS011;40730;53.068;6.572;2023-03-01T09:07:06;24.17;;;18.42;;
54831;SDS011;40730;53.068;6.572;2023-03-01T09:09:32;24.55;;;17.10;;
54831;SDS011;40730;53.068;6.572;2023-03-01T09:11:57;22.50;;;17.83;;
54831;SDS011;40730;53.068;6.572;2023-03-01T09:14:23;23.67;;;17.90;;
54831;SDS011;40730;53.068;6.572;2023-03-01T09:16:49;23.02;;;16.77;;
54831;SDS011;40730;53.068;6.572;2023-03-01T09:19:15;24.70;;;16.92;;
54831;SDS011;40730;53.068;6.572;2023-03-01T09:21:40;21.73;;;15.90;;
54831;SDS011;40730;53.068;6.572;2023-03-01T09:24:13;22.65;;;17.02;;
54831;SDS011;40730;53.068;6.572;2023-03-01T09:26:39;21.58;;;17.13;;
54831;SDS011;40730;53.068;6.572;2023-03-01T09:29:05;28.10;;;17.67;;
54831;SDS011;40730;53.068;6.572;2023-03-01T09:31:30;21.55;;;17.95;;
54831;SDS011;40730;53.068;6.572;2023-03-01T09:33:56;23.95;;;17.67;;
54831;SDS011;40730;53.068;6.572;2023-03-01T09:36:22;23.80;;;17.20;;
54831;SDS011;40730;53.068;6.572;2023-03-01T09:38:50;21.23;;;16.73;;
54831;SDS011;40730;53.068;6.572;2023-03-01T09:43:57;22.40;;;17.95;;
54831;SDS011;40730;53.068;6.572;2023-03-01T09:46:29;27.98;;;17.55;;
54831;SDS011;40730;53.068;6.572;2023-03-01T09:49:02;23.85;;;17.95;;
54831;SDS011;40730;53.068;6.572;2023-03-01T09:51:32;24.30;;;16.63;;
54831;SDS011;40730;53.068;6.572;2023-03-01T09:54:03;24.50;;;16.85;;
54831;SDS011;40730;53.068;6.572;2023-03-01T09:56:40;26.58;;;17.70;;
54831;SDS011;40730;53.068;6.572;2023-03-01T10:04:45;23.05;;;14.95;;
54831;SDS011;40730;53.068;6.572;2023-03-01T10:09:39;25.33;;;15.02;;
54831;SDS011;40730;53.068;6.572;2023-03-01T10:12:17;23.50;;;16.05;;
54831;SDS011;40730;53.068;6.572;2023-03-01T10:23:13;21.67;;;13.55;;
54831;SDS011;40730;53.068;6.572;2023-03-01T10:25:52;20.42;;;14.30;;
54831;SDS011;40730;53.068;6.572;2023-03-01T10:31:22;22.08;;;12.23;;
54831;SDS011;40730;53.068;6.572;2023-03-01T10:33:54;19.98;;;14.57;;
54831;SDS011;40730;53.068;6.572;2023-03-01T10:36:22;22.92;;;14.65;;
54831;SDS011;40730;53.068;6.572;2023-03-01T10:38:53;22.42;;;16.20;;
54831;SDS011;40730;53.068;6.572;2023-03-01T10:41:22;21.08;;;15.73;;
54831;SDS011;40730;53.068;6.572;2023-03-01T10:46:37;24.23;;;17.17;;
54831;SDS011;40730;53.068;6.572;2023-03-01T10:49:21;22.70;;;17.15;;
54831;SDS011;40730;53.068;6.572;2023-03-01T10:51:49;24.50;;;19.15;;
54831;SDS011;40730;53.068;6.572;2023-03-01T10:54:19;22.10;;;18.08;;
54831;SDS011;40730;53.068;6.572;2023-03-01T10:56:54;20.00;;;17.40;;
54831;SDS011;40730;53.068;6.572;2023-03-01T11:02:02;11.15;;;9.35;;
54831;SDS011;40730;53.068;6.572;2023-03-01T11:04:27;11.55;;;9.57;;
54831;SDS011;40730;53.068;6.572;2023-03-01T11:06:59;11.50;;;9.07;;
54831;SDS011;40730;53.068;6.572;2023-03-01T11:09:26;11.93;;;9.25;;
54831;SDS011;40730;53.068;6.572;2023-03-01T11:14:37;14.88;;;9.70;;
54831;SDS011;40730;53.068;6.572;2023-03-01T11:17:12;12.75;;;10.10;;
54831;SDS011;40730;53.068;6.572;2023-03-01T11:22:35;12.10;;;10.38;;
54831;SDS011;40730;53.068;6.572;2023-03-01T11:25:01;11.93;;;10.18;;
54831;SDS011;40730;53.068;6.572;2023-03-01T11:27:36;12.27;;;10.90;;
54831;SDS011;40730;53.068;6.572;2023-03-01T11:30:15;14.52;;;10.25;;
54831;SDS011;40730;53.068;6.572;2023-03-01T11:35:34;13.48;;;10.60;;
54831;SDS011;40730;53.068;6.572;2023-03-01T11:43:12;11.52;;;9.10;;
54831;SDS011;40730;53.068;6.572;2023-03-01T11:48:28;12.48;;;8.88;;
54831;SDS011;40730;53.068;6.572;2023-03-01T11:54:06;14.95;;;9.73;;
54831;SDS011;40730;53.068;6.572;2023-03-01T11:56:50;12.25;;;9.55;;
54831;SDS011;40730;53.068;6.572;2023-03-01T11:59:29;12.38;;;9.80;;
54831;SDS011;40730;53.068;6.572;2023-03-01T12:05:46;12.65;;;8.52;;
54831;SDS011;40730;53.068;6.572;2023-03-01T12:19:19;10.32;;;8.98;;
54831;SDS011;40730;53.068;6.572;2023-03-01T12:24:50;11.90;;;8.80;;
54831;SDS011;40730;53.068;6.572;2023-03-01T12:32:40;10.43;;;8.77;;
54831;SDS011;40730;53.068;6.572;2023-03-01T12:38:15;9.35;;;8.38;;
54831;SDS011;40730;53.068;6.572;2023-03-01T12:41:11;9.68;;;8.70;;
54831;SDS011;40730;53.068;6.572;2023-03-01T12:43:56;9.52;;;8.45;;
54831;SDS011;40730;53.068;6.572;2023-03-01T12:52:13;12.57;;;9.32;;
54831;SDS011;40730;53.068;6.572;2023-03-01T12:54:44;11.20;;;9.48;;
54831;SDS011;40730;53.068;6.572;2023-03-01T12:57:14;11.20;;;10.05;;
54831;SDS011;40730;53.068;6.572;2023-03-01T13:02:54;12.63;;;10.02;;
54831;SDS011;40730;53.068;6.572;2023-03-01T13:06:01;10.13;;;8.95;;
54831;SDS011;40730;53.068;6.572;2023-03-01T13:11:18;11.85;;;10.13;;
54831;SDS011;40730;53.068;6.572;2023-03-01T13:13:46;12.27;;;9.87;;
54831;SDS011;40730;53.068;6.572;2023-03-01T13:19:12;12.88;;;10.48;;
54831;SDS011;40730;53.068;6.572;2023-03-01T13:32:25;14.35;;;11.63;;
54831;SDS011;40730;53.068;6.572;2023-03-01T13:34:58;11.98;;;10.73;;
54831;SDS011;40730;53.068;6.572;2023-03-01T13:37:31;14.18;;;12.10;;
54831;SDS011;40730;53.068;6.572;2023-03-01T13:39:59;13.40;;;11.32;;
54831;SDS011;40730;53.068;6.572;2023-03-01T13:45:05;12.88;;;11.18;;
54831;SDS011;40730;53.068;6.572;2023-03-01T13:47:43;13.30;;;11.90;;
54831;SDS011;40730;53.068;6.572;2023-03-01T13:50:16;14.25;;;11.63;;
54831;SDS011;40730;53.068;6.572;2023-03-01T13:53:04;14.52;;;12.05;;
54831;SDS011;40730;53.068;6.572;2023-03-01T13:55:42;14.00;;;11.65;;
54831;SDS011;40730;53.068;6.572;2023-03-01T13:58:21;14.02;;;11.55;;
54831;SDS011;40730;53.068;6.572;2023-03-01T14:00:58;14.45;;;12.95;;
54831;SDS011;40730;53.068;6.572;2023-03-01T14:03:34;14.32;;;11.90;;
54831;SDS011;40730;53.068;6.572;2023-03-01T14:06:13;14.25;;;12.02;;
54831;SDS011;40730;53.068;6.572;2023-03-01T14:08:46;14.32;;;11.70;;
54831;SDS011;40730;53.068;6.572;2023-03-01T14:20:10;13.77;;;11.43;;
54831;SDS011;40730;53.068;6.572;2023-03-01T14:22:45;14.43;;;11.98;;
54831;SDS011;40730;53.068;6.572;2023-03-01T14:27:43;13.35;;;11.60;;
54831;SDS011;40730;53.068;6.572;2023-03-01T14:30:13;13.23;;;10.63;;
54831;SDS011;40730;53.068;6.572;2023-03-01T14:32:43;14.05;;;11.93;;
54831;SDS011;40730;53.068;6.572;2023-03-01T14:35:29;17.02;;;12.32;;
54831;SDS011;40730;53.068;6.572;2023-03-01T14:37:55;16.75;;;12.63;;
54831;SDS011;40730;53.068;6.572;2023-03-01T14:40:23;14.18;;;12.27;;
54831;SDS011;40730;53.068;6.572;2023-03-01T14:42:55;19.70;;;13.40;;
54831;SDS011;40730;53.068;6.572;2023-03-01T14:45:25;17.48;;;13.98;;
54831;SDS011;40730;53.068;6.572;2023-03-01T14:47:52;16.13;;;12.82;;
54831;SDS011;40730;53.068;6.572;2023-03-01T14:52:51;16.40;;;13.93;;
54831;SDS011;40730;53.068;6.572;2023-03-01T14:55:30;17.13;;;14.32;;
54831;SDS011;40730;53.068;6.572;2023-03-01T14:58:05;18.50;;;12.93;;
54831;SDS011;40730;53.068;6.572;2023-03-01T15:00:34;18.00;;;12.93;;
54831;SDS011;40730;53.068;6.572;2023-03-01T15:03:04;19.83;;;14.20;;
54831;SDS011;40730;53.068;6.572;2023-03-01T15:05:52;19.02;;;13.70;;
54831;SDS011;40730;53.068;6.572;2023-03-01T15:08:20;16.90;;;13.60;;
54831;SDS011;40730;53.068;6.572;2023-03-01T15:10:55;19.52;;;13.80;;
54831;SDS011;40730;53.068;6.572;2023-03-01T15:13:31;21.08;;;14.38;;
54831;SDS011;40730;53.068;6.572;2023-03-01T15:16:05;18.85;;;11.02;;
54831;SDS011;40730;53.068;6.572;2023-03-01T15:18:34;18.75;;;13.57;;
54831;SDS011;40730;53.068;6.572;2023-03-01T15:21:08;21.00;;;13.90;;
54831;SDS011;40730;53.068;6.572;2023-03-01T15:23:40;19.55;;;14.38;;
54831;SDS011;40730;53.068;6.572;2023-03-01T15:26:06;21.77;;;14.25;;
54831;SDS011;40730;53.068;6.572;2023-03-01T15:28:49;19.80;;;12.73;;
54831;SDS011;40730;53.068;6.572;2023-03-01T15:31:20;19.35;;;14.85;;
54831;SDS011;40730;53.068;6.572;2023-03-01T15:33:49;18.98;;;13.63;;
54831;SDS011;40730;53.068;6.572;2023-03-01T15:39:05;18.60;;;14.10;;
54831;SDS011;40730;53.068;6.572;2023-03-01T15:41:48;18.58;;;14.10;;
54831;SDS011;40730;53.068;6.572;2023-03-01T15:44:15;23.42;;;14.73;;
54831;SDS011;40730;53.068;6.572;2023-03-01T15:46:52;19.60;;;13.45;;
54831;SDS011;40730;53.068;6.572;2023-03-01T17:22:23;22.08;;;14.15;;
54831;SDS011;40730;53.068;6.572;2023-03-01T17:24:49;22.42;;;13.63;;
54831;SDS011;40730;53.068;6.572;2023-03-01T17:27:14;23.15;;;14.68;;
54831;SDS011;40730;53.068;6.572;2023-03-01T17:29:41;23.05;;;14.48;;
54831;SDS011;40730;53.068;6.572;2023-03-01T17:32:07;22.30;;;14.75;;
54831;SDS011;40730;53.068;6.572;2023-03-01T17:34:33;22.80;;;14.48;;
54831;SDS011;40730;53.068;6.572;2023-03-01T17:36:59;22.38;;;14.55;;
54831;SDS011;40730;53.068;6.572;2023-03-01T17:39:24;21.38;;;15.50;;
54831;SDS011;40730;53.068;6.572;2023-03-01T17:41:54;22.23;;;14.48;;
54831;SDS011;40730;53.068;6.572;2023-03-01T17:44:21;25.08;;;16.10;;
